Time;durP1;ratioP1;P1;durP2;ratioP2;P2;SDS_P1;SDS_P2;PMS_P1;PMS_P2;Temp;Humidity;BMP_temperature;BMP_pressure;BME280_temperature;BME280_humidity;BME280_pressure;Samples;Min_cycle;Max_cycle;Signal;HPM_P1;HPM_P2
2022/09/02 05:51:29;;;;;;;;;;;13.70;99.90;;;;;;6220747;23;19966;-74
2022/09/02 05:57:03;;;;;;;;;;;13.80;99.90;;;;;;6220409;23;19915;-74
2022/09/02 05:59:30;;;;;;;;;;;13.90;99.90;;;;;;6221132;23;19915;-73
2022/09/02 06:01:56;;;;;;;;;;;14.00;99.90;;;;;;6195640;23;20326;-73
2022/09/02 06:04:23;;;;;;;;;;;14.10;99.90;;;;;;6220481;23;19998;-73
2022/09/02 06:06:49;;;;;;;;;;;14.20;99.90;;;;;;6196332;23;19916;-74
2022/09/02 06:09:37;;;;;;;;;;;14.30;99.90;;;;;;6196307;23;19916;-77
2022/09/02 06:12:10;;;;;;;;;;;14.40;99.90;;;;;;6195682;23;19943;-77
2022/09/02 06:14:36;;;;;;;;;;;14.50;99.90;;;;;;6220528;23;19951;-76
2022/09/02 06:17:05;;;;;;;;;;;14.60;99.90;;;;;;6220686;23;20439;-78
2022/09/02 06:19:40;;;;;;;;;;;14.80;99.90;;;;;;6221086;23;20314;-76
2022/09/02 06:22:05;;;;;;;;;;;14.80;99.90;;;;;;6195980;23;19966;-71
2022/09/02 06:24:31;;;;;;;;;;;15.00;99.90;;;;;;6221876;23;19994;-76
2022/09/02 06:26:58;;;;;;;;;;;15.10;99.90;;;;;;6220518;23;19915;-74
2022/09/02 06:29:54;;;;;;;;;;;15.10;99.90;;;;;;6195429;23;19998;-78
2022/09/02 06:39:42;;;;;;;;;;;15.90;99.90;;;;;;6161492;23;19934;-79
2022/09/02 06:45:45;;;;;;;;;;;16.00;99.90;;;;;;6129190;23;19920;-80
2022/09/02 06:48:42;;;;;;;;;;;16.10;99.90;;;;;;6215221;23;20351;-82
2022/09/02 09:59:44;;;;;;;;;;;22.60;93.80;;;;;;6239172;22;19920;-78
2022/09/02 10:03:18;;;;;;;;;;;22.60;93.30;;;;;;6226755;23;19914;-82
2022/09/02 10:05:43;;;;;;;;;;;22.50;92.90;;;;;;6108379;23;20335;-78
2022/09/02 10:08:15;;;;;;;;;;;22.40;91.90;;;;;;6166001;23;19942;-76
2022/09/02 10:11:13;;;;;;;;;;;22.30;92.40;;;;;;6167032;23;19922;-82
2022/09/02 10:13:41;;;;;;;;;;;22.30;92.20;;;;;;6124229;23;20409;-79
2022/09/02 10:16:34;;;;;;;;;;;22.40;91.80;;;;;;6190793;23;19919;-80
2022/09/02 10:48:05;;;;;;;;;;;22.80;88.40;;;;;;6247206;23;19918;-76
2022/09/02 10:50:54;;;;;;;;;;;22.70;86.60;;;;;;6220840;23;19923;-82
2022/09/02 10:53:23;;;;;;;;;;;22.90;88.60;;;;;;6221095;23;19923;-78
2022/09/02 10:56:00;;;;;;;;;;;22.90;87.70;;;;;;6195383;23;19962;-77
2022/09/02 10:58:38;;;;;;;;;;;23.00;88.30;;;;;;6200455;23;19919;-78
2022/09/02 11:01:05;;;;;;;;;;;23.00;86.40;;;;;;6195788;23;20274;-80
2022/09/02 11:03:46;;;;;;;;;;;23.00;86.10;;;;;;6195243;23;19924;-79
2022/09/02 11:06:15;;;;;;;;;;;23.00;85.60;;;;;;6194955;23;19920;-77
2022/09/02 11:08:56;;;;;;;;;;;23.20;85.60;;;;;;6220201;23;20416;-76
2022/09/02 11:11:41;;;;;;;;;;;23.50;86.00;;;;;;6195467;23;19986;-77
2022/09/02 11:14:21;;;;;;;;;;;23.40;83.70;;;;;;6195601;23;19916;-79
2022/09/02 11:19:48;;;;;;;;;;;23.50;83.10;;;;;;6228964;23;20246;-78
2022/09/02 11:22:39;;;;;;;;;;;23.60;83.40;;;;;;6158732;23;19917;-83
2022/09/02 11:25:35;;;;;;;;;;;23.70;84.10;;;;;;6158659;23;19924;-83
2022/09/02 11:28:01;;;;;;;;;;;23.70;83.40;;;;;;6131800;23;19920;-79
2022/09/02 11:30:35;;;;;;;;;;;23.70;81.00;;;;;;6134252;23;19917;-78
2022/09/02 11:33:01;;;;;;;;;;;23.70;81.40;;;;;;6134429;23;19920;-77
2022/09/02 11:35:31;;;;;;;;;;;23.60;82.00;;;;;;6158687;23;19983;-77
2022/09/02 11:38:01;;;;;;;;;;;23.60;82.30;;;;;;6159160;23;19917;-78
2022/09/02 11:40:53;;;;;;;;;;;23.60;80.30;;;;;;6183953;23;19950;-77
2022/09/02 11:50:47;;;;;;;;;;;23.40;80.00;;;;;;6167277;23;19916;-79
2022/09/02 11:53:19;;;;;;;;;;;23.70;79.70;;;;;;6214974;23;19915;-80
2022/09/02 11:59:34;;;;;;;;;;;;;;;;;;;;;
2022/09/02 12:08:41;;;;;;;;;;;24.10;77.20;;;;;;6011141;23;20264;-76
2022/09/02 12:24:26;;;;;;;;;;;24.30;75.70;;;;;;6216345;23;20346;-78
2022/09/02 12:26:55;;;;;;;;;;;24.40;77.70;;;;;;6193327;23;19922;-82
2022/09/02 12:29:23;;;;;;;;;;;24.30;75.50;;;;;;6193077;23;19919;-80
2022/09/02 12:38:19;;;;;;;;;;;24.10;74.90;;;;;;6219322;23;19915;-80
2022/09/02 12:41:04;;;;;;;;;;;24.10;74.50;;;;;;6193712;23;20319;-78
2022/09/02 12:53:23;;;;;;;;;;;24.30;73.10;;;;;;6278538;22;19952;-79
2022/09/02 12:56:03;;;;;;;;;;;24.20;73.10;;;;;;6251426;22;19989;-80
2022/09/02 12:58:39;;;;;;;;;;;24.20;73.30;;;;;;6251285;22;19922;-81
2022/09/02 13:01:24;;;;;;;;;;;24.20;73.00;;;;;;6226095;22;20352;-77
2022/09/02 13:03:58;;;;;;;;;;;24.20;72.90;;;;;;6225559;22;19950;-80
2022/09/02 13:06:44;;;;;;;;;;;24.10;72.40;;;;;;6250713;22;19941;-79
2022/09/02 13:09:36;;;;;;;;;;;24.10;72.60;;;;;;6225763;22;20346;-80
2022/09/02 13:15:32;;;;;;;;;;;24.40;73.60;;;;;;6277269;22;19919;-77
2022/09/02 13:18:23;;;;;;;;;;;24.40;73.10;;;;;;6250362;22;20294;-77
2022/09/02 13:21:05;;;;;;;;;;;24.50;72.00;;;;;;6250430;22;19924;-80
2022/09/02 13:26:52;;;;;;;;;;;24.60;72.00;;;;;;6277232;22;19922;-78
2022/09/02 13:29:22;;;;;;;;;;;24.30;69.40;;;;;;6224687;22;19994;-82
2022/09/02 13:31:59;;;;;;;;;;;24.50;71.10;;;;;;6250114;22;19916;-78
2022/09/02 13:34:24;;;;;;;;;;;24.60;71.20;;;;;;6248976;22;19926;-81
2022/09/02 13:36:50;;;;;;;;;;;24.50;69.30;;;;;;6224579;22;19951;-77
2022/09/02 13:39:16;;;;;;;;;;;24.50;70.30;;;;;;6225122;22;20333;-77
2022/09/02 13:41:42;;;;;;;;;;;24.60;71.00;;;;;;6224654;22;19915;-77
2022/09/02 13:44:24;;;;;;;;;;;24.50;69.40;;;;;;6224417;22;19923;-77
2022/09/02 13:47:11;;;;;;;;;;;24.60;68.90;;;;;;6250005;22;19915;-80
2022/09/02 13:49:39;;;;;;;;;;;24.60;69.30;;;;;;6224175;22;19926;-81
2022/09/02 13:52:10;;;;;;;;;;;24.70;68.40;;;;;;6224149;22;19923;-79
2022/09/02 13:54:42;;;;;;;;;;;24.70;70.50;;;;;;6224767;22;19922;-77
2022/09/02 13:57:09;;;;;;;;;;;24.80;69.40;;;;;;6224768;22;19915;-78
2022/09/02 14:03:31;;;;;;;;;;;24.90;69.00;;;;;;6183135;23;19922;-81
2022/09/02 14:06:06;;;;;;;;;;;25.00;70.00;;;;;;6155946;23;19965;-79
2022/09/02 14:11:52;;;;;;;;;;;25.00;68.90;;;;;;6150471;23;19947;-80
2022/09/02 14:14:24;;;;;;;;;;;25.00;68.10;;;;;;6160770;23;19916;-81
2022/09/02 14:17:09;;;;;;;;;;;25.20;67.80;;;;;;6157964;23;19917;-82
2022/09/02 14:19:34;;;;;;;;;;;25.40;68.70;;;;;;6159586;23;19920;-80
2022/09/02 14:22:01;;;;;;;;;;;25.40;69.10;;;;;;6224788;22;19915;-80
2022/09/02 14:24:27;;;;;;;;;;;25.10;65.10;;;;;;6225992;22;19922;-81
2022/09/02 14:26:57;;;;;;;;;;;25.20;64.80;;;;;;6250776;22;19919;-80
2022/09/02 14:29:23;;;;;;;;;;;25.10;66.40;;;;;;6225662;22;20322;-81
2022/09/02 14:32:05;;;;;;;;;;;25.20;64.60;;;;;;6226154;22;19915;-80
2022/09/02 14:34:30;;;;;;;;;;;25.30;67.10;;;;;;6225570;22;20246;-80
2022/09/02 14:36:56;;;;;;;;;;;25.30;66.00;;;;;;6225782;22;19915;-81
2022/09/02 14:39:22;;;;;;;;;;;25.20;65.50;;;;;;6225899;22;19915;-81
2022/09/02 14:41:49;;;;;;;;;;;25.30;65.00;;;;;;6225555;22;20223;-80
2022/09/02 14:44:17;;;;;;;;;;;25.50;65.60;;;;;;6225914;22;20238;-80
2022/09/02 14:46:44;;;;;;;;;;;25.50;65.30;;;;;;6225325;22;19919;-80
2022/09/02 14:49:11;;;;;;;;;;;25.70;65.90;;;;;;6220984;22;19995;-81
2022/09/02 14:51:48;;;;;;;;;;;25.40;63.70;;;;;;6195626;23;19919;-81
2022/09/02 14:54:32;;;;;;;;;;;25.40;64.60;;;;;;6195237;23;19922;-81
2022/09/02 14:56:58;;;;;;;;;;;25.50;64.20;;;;;;6194966;23;19916;-80
2022/09/02 14:59:27;;;;;;;;;;;25.10;64.30;;;;;;6195525;23;20513;-80
2022/09/02 15:01:53;;;;;;;;;;;25.00;64.50;;;;;;6170535;23;19930;-80
2022/09/02 15:04:19;;;;;;;;;;;24.80;65.50;;;;;;6220529;23;20277;-80
2022/09/02 15:06:45;;;;;;;;;;;24.70;66.30;;;;;;6195417;23;19923;-80
2022/09/02 15:09:13;;;;;;;;;;;24.90;65.00;;;;;;6195034;23;20001;-80
2022/09/02 15:11:39;;;;;;;;;;;24.70;64.70;;;;;;6195195;23;20463;-80
2022/09/02 15:14:05;;;;;;;;;;;24.70;66.40;;;;;;6195190;23;20366;-82
2022/09/02 15:16:30;;;;;;;;;;;24.80;67.90;;;;;;6195288;23;19987;-79
2022/09/02 15:18:56;;;;;;;;;;;24.60;65.70;;;;;;6195369;23;20349;-77
2022/09/02 15:21:21;;;;;;;;;;;24.70;66.60;;;;;;6195096;23;19916;-77
2022/09/02 15:23:48;;;;;;;;;;;24.70;66.40;;;;;;6195478;23;20392;-78
2022/09/02 15:26:14;;;;;;;;;;;24.70;66.50;;;;;;6221868;23;19926;-77
2022/09/02 15:28:39;;;;;;;;;;;24.60;65.90;;;;;;6206934;23;19919;-79
2022/09/02 15:31:07;;;;;;;;;;;24.50;66.60;;;;;;6202149;23;20621;-79
2022/09/02 15:33:33;;;;;;;;;;;24.40;66.10;;;;;;6215624;22;19948;-79
2022/09/02 15:36:09;;;;;;;;;;;24.40;67.20;;;;;;6249278;22;19918;-80
2022/09/02 15:38:36;;;;;;;;;;;24.30;66.70;;;;;;6223805;22;19935;-79
2022/09/02 15:41:14;;;;;;;;;;;24.30;66.10;;;;;;6223816;22;19903;-79
2022/09/02 15:43:40;;;;;;;;;;;24.20;66.30;;;;;;6221384;23;19926;-80
2022/09/02 15:46:17;;;;;;;;;;;24.20;68.60;;;;;;6207972;23;19927;-79
2022/09/02 15:48:42;;;;;;;;;;;24.00;66.90;;;;;;6201688;23;20219;-79
2022/09/02 15:51:12;;;;;;;;;;;24.00;67.10;;;;;;6225205;22;19927;-79
2022/09/02 15:53:37;;;;;;;;;;;24.00;66.20;;;;;;6250495;22;19922;-79
2022/09/02 15:56:03;;;;;;;;;;;24.00;68.10;;;;;;6225492;22;19919;-79
2022/09/02 15:58:29;;;;;;;;;;;24.00;68.30;;;;;;6225567;22;19922;-79
2022/09/02 16:00:55;;;;;;;;;;;23.90;67.60;;;;;;6250219;22;19928;-80
2022/09/02 16:03:20;;;;;;;;;;;23.80;67.80;;;;;;6250245;22;19919;-79
2022/09/02 16:05:49;;;;;;;;;;;23.80;69.00;;;;;;6250380;22;19942;-79
2022/09/02 16:08:14;;;;;;;;;;;23.70;72.00;;;;;;6225201;22;19973;-80
2022/09/02 16:10:40;;;;;;;;;;;23.70;72.00;;;;;;6224951;22;19915;-79
2022/09/02 16:13:06;;;;;;;;;;;23.70;71.30;;;;;;6224875;22;19915;-78
2022/09/02 16:15:31;;;;;;;;;;;23.70;69.20;;;;;;6225225;22;19915;-79
2022/09/02 16:17:57;;;;;;;;;;;23.70;70.80;;;;;;6250329;22;20334;-79
2022/09/02 16:20:22;;;;;;;;;;;23.70;70.40;;;;;;6224914;22;19922;-79
2022/09/02 16:22:48;;;;;;;;;;;23.60;70.80;;;;;;6224954;22;19961;-79
2022/09/02 16:25:14;;;;;;;;;;;23.60;69.20;;;;;;6252369;22;20333;-78
2022/09/02 16:27:52;;;;;;;;;;;23.60;67.30;;;;;;6228030;22;19937;-79
2022/09/02 16:30:18;;;;;;;;;;;23.60;68.70;;;;;;6227209;22;19982;-77
2022/09/02 16:32:43;;;;;;;;;;;23.50;68.30;;;;;;6226770;22;19919;-78
2022/09/02 16:35:09;;;;;;;;;;;23.40;69.10;;;;;;6227114;22;19933;-80
2022/09/02 16:38:14;;;;;;;;;;;23.40;69.10;;;;;;6227027;22;20345;-81
2022/09/02 16:40:47;;;;;;;;;;;23.20;70.50;;;;;;6131458;23;19916;-80
2022/09/02 16:43:20;;;;;;;;;;;23.00;71.20;;;;;;6082482;23;19923;-79
2022/09/02 16:45:50;;;;;;;;;;;22.90;72.80;;;;;;6175120;22;19923;-79
2022/09/02 16:48:26;;;;;;;;;;;22.70;73.70;;;;;;6226931;22;19915;-79
2022/09/02 16:51:00;;;;;;;;;;;22.60;74.60;;;;;;6202352;22;19942;-81
2022/09/02 16:53:26;;;;;;;;;;;22.30;74.10;;;;;;6226796;22;19962;-77
2022/09/02 16:55:52;;;;;;;;;;;22.30;75.30;;;;;;6226999;22;19915;-72
2022/09/02 16:58:18;;;;;;;;;;;22.20;76.80;;;;;;6251690;22;19915;-69
2022/09/02 17:00:44;;;;;;;;;;;22.10;76.90;;;;;;6251878;22;20352;-69
2022/09/02 17:03:10;;;;;;;;;;;22.10;77.90;;;;;;6252242;22;19998;-70
2022/09/02 17:05:36;;;;;;;;;;;22.00;76.80;;;;;;6226638;22;19919;-69
2022/09/02 17:08:02;;;;;;;;;;;22.00;77.50;;;;;;6226481;22;19919;-70
2022/09/02 17:10:31;;;;;;;;;;;21.90;77.80;;;;;;6252115;22;19942;-69
2022/09/02 17:12:56;;;;;;;;;;;21.80;78.90;;;;;;6263888;22;19920;-70
2022/09/02 17:15:22;;;;;;;;;;;21.80;78.80;;;;;;6252836;22;19925;-68
2022/09/02 17:17:48;;;;;;;;;;;21.70;79.10;;;;;;6226396;22;19926;-68
2022/09/02 17:20:14;;;;;;;;;;;21.60;79.70;;;;;;6237366;22;19967;-68
2022/09/02 17:22:40;;;;;;;;;;;21.50;80.70;;;;;;6280919;22;19994;-71
2022/09/02 17:25:06;;;;;;;;;;;21.50;80.40;;;;;;6255039;22;19919;-68
2022/09/02 17:27:32;;;;;;;;;;;21.40;80.80;;;;;;6251882;22;20334;-69
2022/09/02 17:29:58;;;;;;;;;;;21.40;80.20;;;;;;6251867;22;19999;-69
2022/09/02 17:32:24;;;;;;;;;;;21.30;79.80;;;;;;6226731;22;20241;-69
2022/09/02 17:34:50;;;;;;;;;;;21.30;79.40;;;;;;6251313;22;20348;-68
2022/09/02 17:37:16;;;;;;;;;;;21.20;80.40;;;;;;6251559;22;19919;-68
2022/09/02 17:39:42;;;;;;;;;;;21.20;80.70;;;;;;6251725;22;19920;-69
2022/09/02 17:42:07;;;;;;;;;;;21.20;80.50;;;;;;6278360;22;19919;-68
2022/09/02 17:44:34;;;;;;;;;;;21.10;81.30;;;;;;6278343;22;19934;-67
2022/09/02 17:47:05;;;;;;;;;;;21.00;81.60;;;;;;6251590;22;19925;-68
2022/09/02 17:49:31;;;;;;;;;;;20.80;82.20;;;;;;6269311;22;20331;-67
2022/09/02 17:51:59;;;;;;;;;;;20.80;82.30;;;;;;6248091;23;19919;-68
2022/09/02 17:54:26;;;;;;;;;;;20.80;82.30;;;;;;6221323;23;19930;-68
2022/09/02 17:57:10;;;;;;;;;;;20.70;82.60;;;;;;6171139;23;19919;-68
2022/09/02 17:59:39;;;;;;;;;;;20.60;82.50;;;;;;6221220;23;19920;-67
2022/09/02 18:02:24;;;;;;;;;;;20.60;82.90;;;;;;6220820;23;19926;-68
2022/09/02 18:05:05;;;;;;;;;;;20.50;83.30;;;;;;6195791;23;20025;-67
2022/09/02 18:07:30;;;;;;;;;;;20.50;83.70;;;;;;6195615;23;20250;-67
2022/09/02 18:09:56;;;;;;;;;;;20.40;83.90;;;;;;6195610;23;19916;-67
2022/09/02 18:12:23;;;;;;;;;;;20.40;84.00;;;;;;6220733;23;19938;-68
2022/09/02 18:14:53;;;;;;;;;;;20.30;84.70;;;;;;6195651;23;19919;-67
2022/09/02 18:17:22;;;;;;;;;;;20.20;84.80;;;;;;6220957;23;19915;-67
2022/09/02 18:20:07;;;;;;;;;;;20.10;85.20;;;;;;6195642;23;19916;-68
2022/09/02 18:22:56;;;;;;;;;;;20.00;86.30;;;;;;6194091;23;19951;-69
2022/09/02 18:25:22;;;;;;;;;;;19.80;86.90;;;;;;6220943;23;20346;-68
2022/09/02 18:28:03;;;;;;;;;;;19.70;88.80;;;;;;6247525;23;19916;-67
2022/09/02 18:30:43;;;;;;;;;;;19.50;88.90;;;;;;6195536;23;19916;-68
2022/09/02 18:33:28;;;;;;;;;;;19.50;89.50;;;;;;6195946;23;20330;-68
2022/09/02 18:35:57;;;;;;;;;;;19.30;90.30;;;;;;6195586;23;19998;-68
2022/09/02 18:38:37;;;;;;;;;;;19.30;90.10;;;;;;6220628;23;19916;-68
2022/09/02 18:41:22;;;;;;;;;;;19.20;90.90;;;;;;6228568;23;19922;-66
2022/09/02 18:43:57;;;;;;;;;;;19.00;91.20;;;;;;6247676;23;19900;-64
2022/09/02 18:46:24;;;;;;;;;;;19.00;91.50;;;;;;6246499;23;19920;-68
2022/09/02 18:48:50;;;;;;;;;;;18.90;92.10;;;;;;6272739;22;19923;-67
2022/09/02 18:51:36;;;;;;;;;;;18.80;92.40;;;;;;6217499;23;19919;-68
2022/09/02 18:54:07;;;;;;;;;;;18.80;92.60;;;;;;6219035;23;19926;-67
2022/09/02 18:56:35;;;;;;;;;;;18.90;93.20;;;;;;6247453;23;19924;-66
2022/09/02 18:59:09;;;;;;;;;;;18.90;93.10;;;;;;6170657;23;19919;-68
2022/09/02 19:01:43;;;;;;;;;;;18.80;93.60;;;;;;6220482;23;19919;-67
2022/09/02 19:04:09;;;;;;;;;;;18.90;93.50;;;;;;6247102;23;20323;-68
2022/09/02 19:06:35;;;;;;;;;;;18.90;93.60;;;;;;6220074;23;19923;-68
2022/09/02 19:09:03;;;;;;;;;;;19.00;93.60;;;;;;6220428;23;19926;-68
2022/09/02 19:11:32;;;;;;;;;;;19.00;93.50;;;;;;6220225;23;20305;-68
2022/09/02 19:14:07;;;;;;;;;;;19.10;93.50;;;;;;6195177;23;19947;-68
2022/09/02 19:16:35;;;;;;;;;;;19.20;93.40;;;;;;6220220;23;19920;-69
2022/09/02 19:19:01;;;;;;;;;;;19.20;93.20;;;;;;6246763;23;19915;-69
2022/09/02 19:21:47;;;;;;;;;;;19.20;93.40;;;;;;6195081;23;19916;-69
2022/09/02 19:24:30;;;;;;;;;;;19.20;93.50;;;;;;6169648;23;20326;-69
2022/09/02 19:27:00;;;;;;;;;;;19.30;93.40;;;;;;6194906;23;19919;-69
2022/09/02 19:29:26;;;;;;;;;;;19.30;93.20;;;;;;6220295;23;19916;-68
2022/09/02 19:31:53;;;;;;;;;;;19.30;93.10;;;;;;6218580;23;19963;-68
2022/09/02 19:34:20;;;;;;;;;;;19.40;93.40;;;;;;6219972;23;19915;-68
2022/09/02 19:36:47;;;;;;;;;;;19.40;93.00;;;;;;6246645;23;19915;-67
2022/09/02 19:39:13;;;;;;;;;;;19.40;92.60;;;;;;6194906;23;19916;-68
2022/09/02 19:41:39;;;;;;;;;;;19.50;92.70;;;;;;6219912;23;19923;-68
2022/09/02 19:44:04;;;;;;;;;;;19.50;92.70;;;;;;6219856;23;19924;-68
2022/09/02 19:46:31;;;;;;;;;;;19.50;92.70;;;;;;6194826;23;19919;-67
2022/09/02 19:48:56;;;;;;;;;;;19.50;92.70;;;;;;6245882;22;20002;-69
2022/09/02 19:51:23;;;;;;;;;;;19.40;92.90;;;;;;6195744;23;19947;-68
2022/09/02 19:53:48;;;;;;;;;;;19.50;92.80;;;;;;6173236;23;20006;-68
2022/09/02 19:56:16;;;;;;;;;;;19.40;92.90;;;;;;6194097;23;19939;-70
2022/09/02 19:58:42;;;;;;;;;;;19.50;92.80;;;;;;6194653;23;19915;-73
2022/09/02 20:01:07;;;;;;;;;;;19.50;92.90;;;;;;6219864;23;19961;-74
2022/09/02 20:03:33;;;;;;;;;;;19.40;92.90;;;;;;6220148;23;19915;-72
2022/09/02 20:05:59;;;;;;;;;;;19.30;93.40;;;;;;6194485;23;19920;-71
2022/09/02 20:08:29;;;;;;;;;;;19.40;93.20;;;;;;6194454;23;19930;-71
2022/09/02 20:10:59;;;;;;;;;;;19.30;93.40;;;;;;6170564;23;19919;-70
2022/09/02 20:13:25;;;;;;;;;;;19.30;93.60;;;;;;6219784;23;19919;-72
2022/09/02 20:15:52;;;;;;;;;;;19.20;93.60;;;;;;6194580;23;19923;-72
2022/09/02 20:28:40;;;;;;;;;;;19.10;93.90;;;;;;6245162;23;19954;-76
2022/09/02 21:36:25;;;;;;;;;;;19.10;93.00;;;;;;6225189;22;20361;-73
2022/09/02 21:38:53;;;;;;;;;;;19.20;92.90;;;;;;6220841;23;19954;-72
2022/09/02 21:41:25;;;;;;;;;;;19.10;93.10;;;;;;6220585;23;19923;-75
2022/09/02 21:44:09;;;;;;;;;;;19.10;93.10;;;;;;6194822;23;19916;-74
2022/09/02 21:46:48;;;;;;;;;;;19.00;93.30;;;;;;6195545;23;19926;-73
2022/09/02 21:49:26;;;;;;;;;;;19.00;93.10;;;;;;6195259;23;19968;-75
2022/09/02 21:51:52;;;;;;;;;;;19.00;93.00;;;;;;6195504;23;19919;-76
2022/09/02 21:54:27;;;;;;;;;;;19.00;93.00;;;;;;6195226;23;19939;-73
